Ekspressen — LCBK — position and weather

sailwx.info

Track history (hours):
 
Tides and Currents Weather Stations Pressure Air Temp Water Temp Dewpoint Dewpoint Depression Visibility Wind Speed Wind Dir Waves Ship Positions

Ekspressen

Last reported at 2016-May-20 00:14 UTC. Time now 2016-May-28 11:48 UTC.
Position N 62°22' E 006°02'.
Warning: this ship's position is 8 days out of date.

Length 33 m; draft 2 m.

Type: High speed craft. MMSI: 258416000.

Date/timePositionNaut miles runAvg speedWind from/ knotsBaromVisibWave heightAir tempDewpointWater temp
2016-May-20 00:14N 62°22' E 006°02'0 0.0
2016-May-19 22:32N 62°22' E 006°02'7 6.8
2016-May-19 21:33N 62°29' E 006°06'1 1.5
2016-May-19 20:33N 62°30' E 006°08'1 1.5
2016-May-19 19:33N 62°28' E 006°09'1 1.5
2016-May-19 18:34N 62°30' E 006°08'1 1.4
2016-May-19 17:33N 62°28' E 006°09'1 0.6
2016-May-19 16:34N 62°29' E 006°09'1 0.8
2016-May-19 15:34N 62°30' E 006°08'3 2.1
2016-May-19 14:15N 62°28' E 006°04'  
Track history (hours):
 
Tides and Currents Weather Stations Pressure Air Temp Water Temp Dewpoint Dewpoint Depression Visibility Wind Speed Wind Dir Waves Ship Positions

Ekspressen

Last reported at 2016-May-20 00:14 UTC. Time now 2016-May-28 11:48 UTC.
Position N 62°22' E 006°02'.
Warning: this ship's position is 8 days out of date.

Length 33 m; draft 2 m.

Type: High speed craft. MMSI: 258416000.

Date/timePositionNaut miles runAvg speedWind from/ knotsBaromVisibWave heightAir tempDewpointWater temp
2016-May-20 00:14N 62°22' E 006°02'0 0.0
2016-May-19 22:32N 62°22' E 006°02'7 6.8
2016-May-19 21:33N 62°29' E 006°06'1 1.5
2016-May-19 20:33N 62°30' E 006°08'1 1.5
2016-May-19 19:33N 62°28' E 006°09'1 1.5
2016-May-19 18:34N 62°30' E 006°08'1 1.4
2016-May-19 17:33N 62°28' E 006°09'1 0.6
2016-May-19 16:34N 62°29' E 006°09'1 0.8
2016-May-19 15:34N 62°30' E 006°08'3 2.1
2016-May-19 14:15N 62°28' E 006°04'  

Dump ship's entire track history